createdAt,value
2023-04-15T00:00:08.473Z,64.40
2023-04-15T00:01:08.371Z,64.21
2023-04-15T00:02:08.448Z,63.92
2023-04-15T00:03:08.545Z,63.56
2023-04-15T00:04:08.529Z,63.56
2023-04-15T00:05:08.385Z,63.99
2023-04-15T00:06:08.464Z,64.24
2023-04-15T00:07:08.526Z,64.47
2023-04-15T00:08:08.499Z,64.36
2023-04-15T00:09:08.521Z,64.40
2023-04-15T00:10:08.541Z,64.14
2023-04-15T00:11:08.570Z,64.24
2023-04-15T00:12:08.553Z,64.13
2023-04-15T00:13:08.592Z,64.64
2023-04-15T00:14:08.662Z,64.54
2023-04-15T00:15:08.734Z,64.46
2023-04-15T00:16:08.851Z,65.06
2023-04-15T00:17:08.855Z,65.13
2023-04-15T00:18:08.945Z,64.90
2023-04-15T00:19:08.901Z,65.23
2023-04-15T00:20:09.682Z,65.00
2023-04-15T00:21:09.066Z,64.73
2023-04-15T00:22:08.941Z,64.94
2023-04-15T00:23:08.976Z,64.73
2023-04-15T00:24:09.046Z,64.49
2023-04-15T00:25:09.076Z,64.22
2023-04-15T00:26:09.189Z,64.21
2023-04-15T00:27:09.207Z,64.06
2023-04-15T00:28:09.283Z,64.12
2023-04-15T00:29:09.561Z,63.85
2023-04-15T00:30:09.317Z,64.08
2023-04-15T00:31:09.370Z,64.20
2023-04-15T00:32:09.401Z,64.81
2023-04-15T00:33:09.432Z,64.82
2023-04-15T00:34:09.533Z,64.62
2023-04-15T00:35:09.577Z,64.58
2023-04-15T00:36:09.580Z,64.14
2023-04-15T00:37:09.651Z,64.01
2023-04-15T00:38:09.710Z,63.79
2023-04-15T00:39:09.746Z,63.71
2023-04-15T00:40:09.808Z,63.49
2023-04-15T00:41:09.854Z,63.27
2023-04-15T00:42:09.845Z,63.45
2023-04-15T00:43:09.911Z,63.23
2023-04-15T00:44:09.886Z,63.16
2023-04-15T00:45:10.092Z,63.09
2023-04-15T00:46:09.958Z,63.06
2023-04-15T00:47:09.995Z,63.05
2023-04-15T00:48:10.005Z,63.19
2023-04-15T00:49:10.082Z,63.18
2023-04-15T00:50:10.561Z,63.23
2023-04-15T00:51:10.113Z,63.21
2023-04-15T00:52:10.134Z,62.83
2023-04-15T00:53:10.151Z,63.13
2023-04-15T00:54:10.172Z,63.45
2023-04-15T00:55:11.060Z,63.67
2023-04-15T00:56:10.260Z,63.98
2023-04-15T00:57:10.275Z,63.92
2023-04-15T00:58:10.326Z,63.47
2023-04-15T00:59:10.389Z,63.30
2023-04-15T01:00:10.399Z,63.14
2023-04-15T01:01:10.408Z,63.06
2023-04-15T01:02:10.572Z,62.74
2023-04-15T01:03:10.573Z,62.55
2023-04-15T01:04:10.585Z,62.57
2023-04-15T01:05:10.571Z,62.50
2023-04-15T01:06:10.594Z,62.56
2023-04-15T01:07:10.604Z,62.74
2023-04-15T01:08:10.656Z,62.96
2023-04-15T01:09:11.072Z,62.90
2023-04-15T01:10:10.724Z,62.74
2023-04-15T01:11:10.748Z,62.44
2023-04-15T01:12:10.784Z,62.12
2023-04-15T01:13:10.821Z,62.21
2023-04-15T01:14:10.897Z,62.18
2023-04-15T01:15:10.916Z,62.42
2023-04-15T01:16:10.998Z,62.47
2023-04-15T01:17:11.000Z,62.67
2023-04-15T01:18:11.072Z,62.40
2023-04-15T01:19:11.096Z,61.96
2023-04-15T01:20:11.110Z,62.38
2023-04-15T01:21:11.141Z,62.25
2023-04-15T01:22:11.209Z,62.01
2023-04-15T01:23:11.230Z,61.39
2023-04-15T01:24:11.240Z,61.52
2023-04-15T01:25:11.251Z,61.89
2023-04-15T01:26:11.323Z,61.96
2023-04-15T01:27:11.352Z,61.75
2023-04-15T01:28:11.369Z,61.92
2023-04-15T01:29:12.041Z,61.78
2023-04-15T01:30:11.507Z,61.38
2023-04-15T01:31:11.662Z,61.39
2023-04-15T01:32:11.591Z,60.90
2023-04-15T01:33:11.600Z,61.04
2023-04-15T01:34:12.081Z,61.07
2023-04-15T01:35:11.638Z,61.19
2023-04-15T01:36:11.668Z,61.10
2023-04-15T01:37:11.737Z,60.52
2023-04-15T01:38:11.763Z,59.90
2023-04-15T01:39:12.550Z,59.14
2023-04-15T01:40:11.898Z,59.00
2023-04-15T01:41:11.858Z,58.92
2023-04-15T01:42:11.891Z,58.53
2023-04-15T01:43:11.896Z,58.70
2023-04-15T01:44:11.925Z,59.69
2023-04-15T01:45:11.926Z,59.90
2023-04-15T01:46:11.976Z,59.97
2023-04-15T01:47:11.971Z,59.76
2023-04-15T01:48:11.996Z,59.96
2023-04-15T01:49:12.063Z,58.57
2023-04-15T01:50:12.098Z,57.41
2023-04-15T01:51:12.171Z,57.20
2023-04-15T01:52:12.188Z,55.98
2023-04-15T01:53:12.139Z,58.33
2023-04-15T01:54:12.165Z,60.01
2023-04-15T01:55:12.187Z,60.57
2023-04-15T01:56:12.196Z,60.99
2023-04-15T01:57:12.231Z,61.02
2023-04-15T01:58:12.333Z,60.82
2023-04-15T01:59:12.357Z,61.10
2023-04-15T02:00:14.127Z,61.10
2023-04-15T02:01:12.483Z,60.67
2023-04-15T02:02:12.492Z,58.84
2023-04-15T02:03:12.579Z,58.58
2023-04-15T02:04:12.565Z,59.71
2023-04-15T02:05:12.618Z,59.82
2023-04-15T02:06:12.643Z,59.43
2023-04-15T02:07:12.665Z,59.38
2023-04-15T02:08:12.678Z,58.17
2023-04-15T02:09:12.784Z,56.91
2023-04-15T02:10:12.762Z,57.97
2023-04-15T02:11:12.780Z,58.71
2023-04-15T02:12:12.863Z,57.90
2023-04-15T02:13:12.929Z,57.03
2023-04-15T02:14:12.888Z,58.15
2023-04-15T02:15:12.925Z,58.57
2023-04-15T02:16:12.980Z,57.27
2023-04-15T02:17:12.959Z,56.93
2023-04-15T02:18:13.010Z,56.65
2023-04-15T02:19:12.980Z,55.89
2023-04-15T02:20:13.105Z,55.79
2023-04-15T02:21:13.036Z,55.61
2023-04-15T02:22:13.148Z,54.60
2023-04-15T02:23:13.115Z,54.18
2023-04-15T02:24:13.141Z,54.30
2023-04-15T02:25:13.149Z,54.18
2023-04-15T02:26:13.216Z,54.52
2023-04-15T02:27:13.235Z,54.51
2023-04-15T02:28:13.252Z,54.69
2023-04-15T02:29:13.300Z,54.72
2023-04-15T02:30:13.294Z,54.81
2023-04-15T02:31:13.309Z,54.79
2023-04-15T02:32:13.454Z,54.97
2023-04-15T02:33:13.436Z,54.85
2023-04-15T02:34:13.428Z,54.11
2023-04-15T02:35:13.501Z,53.74
2023-04-15T02:36:13.463Z,53.17
2023-04-15T02:37:13.487Z,53.22
2023-04-15T02:38:13.449Z,52.91
2023-04-15T02:39:13.460Z,53.45
2023-04-15T02:40:13.551Z,53.13
2023-04-15T02:41:13.554Z,53.10
2023-04-15T02:42:13.554Z,53.42
2023-04-15T02:43:13.587Z,53.07
2023-04-15T02:44:13.663Z,54.03
2023-04-15T02:45:13.768Z,54.48
2023-04-15T02:46:13.773Z,54.92
2023-04-15T02:47:13.824Z,54.76
2023-04-15T02:48:13.870Z,53.59
2023-04-15T02:49:13.837Z,53.25
2023-04-15T02:50:13.932Z,52.49
2023-04-15T02:51:13.982Z,52.21
2023-04-15T02:52:13.976Z,52.41
2023-04-15T02:53:14.006Z,52.64
2023-04-15T02:54:14.106Z,52.23
2023-04-15T02:55:14.134Z,52.18
2023-04-15T02:56:14.175Z,51.59
2023-04-15T02:57:14.218Z,51.62
2023-04-15T02:58:14.272Z,52.12
2023-04-15T02:59:14.386Z,51.88
2023-04-15T03:00:14.421Z,52.60
2023-04-15T03:01:14.430Z,53.50
2023-04-15T03:02:14.509Z,53.56
2023-04-15T03:03:14.704Z,53.30
2023-04-15T03:04:14.701Z,53.83
2023-04-15T03:05:14.434Z,53.79
2023-04-15T03:06:14.474Z,53.64
2023-04-15T03:07:14.467Z,53.22
2023-04-15T03:08:14.470Z,53.33
2023-04-15T03:09:14.525Z,53.39
2023-04-15T03:10:14.585Z,53.54
2023-04-15T03:11:14.499Z,53.40
2023-04-15T03:12:14.513Z,53.64
2023-04-15T03:13:14.538Z,53.83
2023-04-15T03:14:14.559Z,53.57
2023-04-15T03:15:14.562Z,53.71
2023-04-15T03:16:14.678Z,53.22
2023-04-15T03:17:14.545Z,52.83
2023-04-15T03:18:14.587Z,53.51
2023-04-15T03:19:14.610Z,53.59
2023-04-15T03:20:14.683Z,53.26
2023-04-15T03:21:14.663Z,52.81
2023-04-15T03:22:14.716Z,53.36
2023-04-15T03:23:14.810Z,52.98
2023-04-15T03:24:14.822Z,53.47
2023-04-15T03:25:14.887Z,53.34
2023-04-15T03:26:14.906Z,53.18
2023-04-15T03:27:14.939Z,53.11
2023-04-15T03:28:14.964Z,53.14
2023-04-15T03:29:15.034Z,53.12
2023-04-15T03:30:15.082Z,53.39
2023-04-15T03:31:15.086Z,53.80
2023-04-15T03:32:15.173Z,53.34
2023-04-15T03:33:15.088Z,52.48
2023-04-15T03:34:15.109Z,52.49
2023-04-15T03:35:15.156Z,52.54
2023-04-15T03:36:15.206Z,52.44
2023-04-15T03:37:15.283Z,52.22
2023-04-15T03:38:15.311Z,51.95
2023-04-15T03:39:15.359Z,52.01
2023-04-15T03:40:15.385Z,51.78
2023-04-15T03:41:15.457Z,51.93
2023-04-15T03:42:15.460Z,51.62
2023-04-15T03:43:15.515Z,51.72
2023-04-15T03:44:15.564Z,51.76
2023-04-15T03:45:15.680Z,51.93
2023-04-15T03:46:15.682Z,51.56
2023-04-15T03:47:15.692Z,51.48
2023-04-15T03:48:17.876Z,51.61
2023-04-15T03:49:15.967Z,51.69
2023-04-15T03:50:16.004Z,51.16
2023-04-15T03:51:16.052Z,50.77
2023-04-15T03:52:16.073Z,50.98
2023-04-15T03:53:16.093Z,50.64
2023-04-15T03:54:16.133Z,50.75
2023-04-15T03:55:16.273Z,50.57
2023-04-15T03:56:16.220Z,50.23
2023-04-15T03:57:16.266Z,50.08
2023-04-15T03:58:16.311Z,49.90
2023-04-15T03:59:16.338Z,50.03
2023-04-15T04:00:16.414Z,50.00
2023-04-15T04:01:16.447Z,49.89
2023-04-15T04:02:16.573Z,49.65
2023-04-15T04:03:16.646Z,49.86
2023-04-15T04:04:16.577Z,49.62
2023-04-15T04:05:16.543Z,49.25
2023-04-15T04:06:16.578Z,49.24
2023-04-15T04:07:16.559Z,49.13
2023-04-15T04:08:16.576Z,48.89
2023-04-15T04:09:16.590Z,48.57
2023-04-15T04:10:16.608Z,48.89
2023-04-15T04:11:16.667Z,48.87
2023-04-15T04:12:16.822Z,49.91
2023-04-15T04:13:16.769Z,49.11
2023-04-15T04:14:16.874Z,49.05
2023-04-15T04:15:16.853Z,49.53
2023-04-15T04:16:16.934Z,49.14
2023-04-15T04:17:16.870Z,48.90
2023-04-15T04:18:16.938Z,48.69
2023-04-15T04:19:16.940Z,48.60
2023-04-15T04:20:16.989Z,48.75
2023-04-15T04:21:17.032Z,49.12
2023-04-15T04:22:17.133Z,49.29
2023-04-15T04:23:17.057Z,49.17
2023-04-15T04:24:17.089Z,49.21
2023-04-15T04:25:17.236Z,48.95
2023-04-15T04:26:17.626Z,48.90
2023-04-15T04:27:17.329Z,48.54
2023-04-15T04:28:17.443Z,48.25
2023-04-15T04:29:17.528Z,48.32
2023-04-15T04:30:17.671Z,48.83
2023-04-15T04:31:17.657Z,48.63
2023-04-15T04:32:17.678Z,48.07
2023-04-15T04:33:17.771Z,47.89
2023-04-15T04:34:17.760Z,47.76
2023-04-15T04:35:17.831Z,48.19
2023-04-15T04:36:17.905Z,48.39
2023-04-15T04:37:17.942Z,48.54
2023-04-15T04:38:17.955Z,48.16
2023-04-15T04:39:18.031Z,47.91
2023-04-15T04:40:18.101Z,47.77
2023-04-15T04:41:18.134Z,47.58
2023-04-15T04:42:18.074Z,47.51
2023-04-15T04:43:18.140Z,47.40
2023-04-15T04:44:18.150Z,47.43
2023-04-15T04:45:19.164Z,48.02
2023-04-15T04:46:18.228Z,48.32
2023-04-15T04:47:18.221Z,49.11
2023-04-15T04:48:18.318Z,49.46
2023-04-15T04:49:18.332Z,49.37
2023-04-15T04:50:18.378Z,49.60
2023-04-15T04:51:18.423Z,49.09
2023-04-15T04:52:18.401Z,49.47
2023-04-15T04:53:19.092Z,49.36
2023-04-15T04:54:18.454Z,49.28
2023-04-15T04:55:18.478Z,49.63
2023-04-15T04:56:18.498Z,49.49
2023-04-15T04:57:18.556Z,50.04
2023-04-15T04:58:18.614Z,49.67
2023-04-15T04:59:19.498Z,49.72
2023-04-15T05:00:18.668Z,49.97
2023-04-15T05:01:18.700Z,49.38
2023-04-15T05:02:18.798Z,50.42
2023-04-15T05:03:18.987Z,49.70
2023-04-15T05:04:18.771Z,48.76
2023-04-15T05:05:18.810Z,49.18
2023-04-15T05:06:19.744Z,49.65
2023-04-15T05:07:18.928Z,49.62
2023-04-15T05:08:18.922Z,49.61
2023-04-15T05:09:18.975Z,48.92
2023-04-15T05:10:19.008Z,49.86
2023-04-15T05:11:19.044Z,49.18
2023-04-15T05:12:19.058Z,48.53
2023-04-15T05:13:19.069Z,48.44
2023-04-15T05:14:19.220Z,48.68
2023-04-15T05:15:19.273Z,48.67
2023-04-15T05:16:19.387Z,50.31
2023-04-15T05:17:19.477Z,49.29
2023-04-15T05:18:19.429Z,48.80
2023-04-15T05:19:19.438Z,49.52
2023-04-15T05:20:19.450Z,48.96
2023-04-15T05:21:19.482Z,49.24
2023-04-15T05:22:19.547Z,49.05
2023-04-15T05:23:19.565Z,49.19
2023-04-15T05:24:19.641Z,49.31
2023-04-15T05:25:19.650Z,49.33
2023-04-15T05:26:19.717Z,49.17
2023-04-15T05:27:19.814Z,49.56
2023-04-15T05:28:19.808Z,49.71
2023-04-15T05:29:19.875Z,49.73
2023-04-15T05:30:19.898Z,49.87
2023-04-15T05:31:19.992Z,50.03
2023-04-15T05:32:20.128Z,50.63
2023-04-15T05:33:20.076Z,51.00
2023-04-15T05:34:20.122Z,50.85
2023-04-15T05:35:20.173Z,50.27
2023-04-15T05:36:20.106Z,50.01
2023-04-15T05:37:20.133Z,49.79
2023-04-15T05:38:20.157Z,49.52
2023-04-15T05:39:20.172Z,49.96
2023-04-15T05:40:20.233Z,50.22
2023-04-15T05:41:20.195Z,50.08
2023-04-15T05:42:21.180Z,50.10
2023-04-15T05:43:20.187Z,50.16
2023-04-15T05:44:20.210Z,50.77
2023-04-15T05:45:20.233Z,50.49
2023-04-15T05:46:20.226Z,50.58
2023-04-15T05:47:20.283Z,50.57
2023-04-15T05:48:20.253Z,50.62
2023-04-15T05:49:20.306Z,50.71
2023-04-15T05:50:20.321Z,50.52
2023-04-15T05:51:20.292Z,51.00
2023-04-15T05:52:20.338Z,51.16
2023-04-15T05:53:20.330Z,50.05
2023-04-15T05:54:20.475Z,49.52
2023-04-15T05:55:20.326Z,49.58
2023-04-15T05:56:20.640Z,50.13
2023-04-15T05:57:20.396Z,49.20
2023-04-15T05:58:20.442Z,49.69
2023-04-15T05:59:20.485Z,51.17
2023-04-15T06:00:20.520Z,50.05
2023-04-15T06:01:20.529Z,49.14
2023-04-15T06:02:21.177Z,49.42
2023-04-15T06:03:20.675Z,49.90
2023-04-15T06:04:20.785Z,50.65
2023-04-15T06:05:20.711Z,49.35
2023-04-15T06:06:21.140Z,49.05
2023-04-15T06:07:20.793Z,50.39
2023-04-15T06:08:20.900Z,48.97
2023-04-15T06:09:20.911Z,47.98
2023-04-15T06:10:20.992Z,48.40
2023-04-15T06:11:21.126Z,48.50
2023-04-15T06:12:21.038Z,47.73
2023-04-15T06:13:21.063Z,47.91
2023-04-15T06:14:21.083Z,48.48
2023-04-15T06:15:21.096Z,49.75
2023-04-15T06:16:21.160Z,49.95
2023-04-15T06:17:21.215Z,49.52
2023-04-15T06:18:21.204Z,49.41
2023-04-15T06:19:21.213Z,48.50
2023-04-15T06:20:21.701Z,49.20
2023-04-15T06:21:21.350Z,49.30
2023-04-15T06:22:21.293Z,49.11
2023-04-15T06:23:21.297Z,49.02
2023-04-15T06:24:21.429Z,49.89
2023-04-15T06:25:21.390Z,49.57
2023-04-15T06:26:21.393Z,49.04
2023-04-15T06:27:21.430Z,49.61
2023-04-15T06:28:21.443Z,47.85
2023-04-15T06:29:21.463Z,47.90
2023-04-15T06:30:22.931Z,47.88
2023-04-15T06:31:21.523Z,47.81
2023-04-15T06:32:21.569Z,47.61
2023-04-15T06:33:21.515Z,46.92
2023-04-15T06:34:21.502Z,46.80
2023-04-15T06:35:21.516Z,46.88
2023-04-15T06:36:21.486Z,47.22
2023-04-15T06:37:21.502Z,47.75
2023-04-15T06:38:21.476Z,47.24
2023-04-15T06:39:21.431Z,46.99
2023-04-15T06:40:21.519Z,49.08
2023-04-15T06:41:21.505Z,48.65
2023-04-15T06:42:21.460Z,48.15
2023-04-15T06:43:21.424Z,47.30
2023-04-15T06:44:21.434Z,47.85
2023-04-15T06:45:22.137Z,47.21
2023-04-15T06:46:21.481Z,46.85
2023-04-15T06:47:21.483Z,47.08
2023-04-15T06:48:21.420Z,48.20
2023-04-15T06:49:21.413Z,49.07
2023-04-15T06:50:21.406Z,48.45
2023-04-15T06:51:21.374Z,47.73
2023-04-15T06:52:21.390Z,46.84
2023-04-15T06:53:21.372Z,46.46
2023-04-15T06:54:21.369Z,47.34
2023-04-15T06:55:21.388Z,47.02
2023-04-15T06:56:21.351Z,46.92
2023-04-15T06:57:21.385Z,47.03
2023-04-15T06:58:21.342Z,46.29
2023-04-15T06:59:21.316Z,46.30
2023-04-15T07:00:21.323Z,46.19
2023-04-15T07:01:21.363Z,45.41
2023-04-15T07:02:21.405Z,44.81
2023-04-15T07:03:21.313Z,45.43
2023-04-15T07:04:21.330Z,44.93
2023-04-15T07:05:21.282Z,45.52
2023-04-15T07:06:21.298Z,44.35
2023-04-15T07:07:21.272Z,45.11
2023-04-15T07:08:21.263Z,45.11
2023-04-15T07:09:21.272Z,45.09
2023-04-15T07:10:21.266Z,45.07
2023-04-15T07:11:21.229Z,44.96
2023-04-15T07:12:21.241Z,44.82
2023-04-15T07:13:21.265Z,46.04
2023-04-15T07:14:21.226Z,45.94
2023-04-15T07:15:21.220Z,46.63
2023-04-15T07:16:21.268Z,45.64
2023-04-15T07:17:21.228Z,45.16
2023-04-15T07:18:21.214Z,46.44
2023-04-15T07:19:21.225Z,45.32
2023-04-15T07:20:21.188Z,44.20
2023-04-15T07:21:21.166Z,44.35
2023-04-15T07:22:21.672Z,43.25
2023-04-15T07:23:21.154Z,44.15
2023-04-15T07:24:21.156Z,43.00
2023-04-15T07:25:21.171Z,42.69
2023-04-15T07:26:21.143Z,44.50
2023-04-15T07:27:21.117Z,43.54
2023-04-15T07:28:21.134Z,44.74
2023-04-15T07:29:21.155Z,43.52
2023-04-15T07:30:21.118Z,43.84
2023-04-15T07:31:21.173Z,42.86
2023-04-15T07:32:21.117Z,43.65
2023-04-15T07:33:21.138Z,44.33
2023-04-15T07:34:21.206Z,44.53
2023-04-15T07:35:21.267Z,43.31
2023-04-15T07:36:21.185Z,43.64
2023-04-15T07:37:21.184Z,43.83
2023-04-15T07:38:21.178Z,44.26
2023-04-15T07:39:21.312Z,43.72
2023-04-15T07:40:21.267Z,42.67
2023-04-15T07:41:21.257Z,44.88
2023-04-15T07:42:21.299Z,43.88
2023-04-15T07:43:21.369Z,43.53
2023-04-15T07:44:21.329Z,42.97
2023-04-15T07:45:21.357Z,43.64
2023-04-15T07:46:21.455Z,43.13
2023-04-15T07:47:21.535Z,42.87
2023-04-15T07:48:21.466Z,42.98
2023-04-15T07:49:21.553Z,42.04
2023-04-15T07:50:21.527Z,43.32
2023-04-15T07:51:21.577Z,43.07
2023-04-15T07:52:21.594Z,42.75
2023-04-15T07:53:21.604Z,42.49
2023-04-15T07:54:21.684Z,42.18
2023-04-15T07:55:21.694Z,43.66
2023-04-15T07:56:21.791Z,42.78
2023-04-15T07:57:21.795Z,42.54
2023-04-15T07:58:21.859Z,43.12
2023-04-15T07:59:21.888Z,43.11
2023-04-15T08:00:21.897Z,42.85
2023-04-15T08:01:21.961Z,42.45
2023-04-15T08:02:22.062Z,42.62
2023-04-15T08:03:22.092Z,41.33
2023-04-15T08:04:22.111Z,41.70
2023-04-15T08:05:22.133Z,43.30
2023-04-15T08:06:22.109Z,41.12
2023-04-15T08:07:22.181Z,41.80
2023-04-15T08:08:22.262Z,41.53
2023-04-15T08:09:22.327Z,41.09
2023-04-15T08:10:22.392Z,41.27
2023-04-15T08:11:22.348Z,40.98
2023-04-15T08:12:22.398Z,41.84
2023-04-15T08:13:22.400Z,41.79
2023-04-15T08:14:22.395Z,40.53
2023-04-15T08:15:22.438Z,40.68
2023-04-15T08:16:22.678Z,41.46
2023-04-15T08:17:22.537Z,40.68
2023-04-15T08:18:22.538Z,41.01
2023-04-15T08:19:22.596Z,40.68
2023-04-15T08:20:22.686Z,40.99
2023-04-15T08:21:22.668Z,40.62
2023-04-15T08:22:22.749Z,40.97
2023-04-15T08:23:22.762Z,40.37
2023-04-15T08:24:22.835Z,41.48
2023-04-15T08:25:23.163Z,40.43
2023-04-15T08:26:22.893Z,41.93
2023-04-15T08:27:22.942Z,40.79
2023-04-15T08:28:22.974Z,40.55
2023-04-15T08:29:23.121Z,41.24
2023-04-15T08:30:23.063Z,41.96
2023-04-15T08:31:23.137Z,41.66
2023-04-15T08:32:23.138Z,40.22
2023-04-15T08:33:23.180Z,40.65
2023-04-15T08:34:23.228Z,39.93
2023-04-15T08:35:23.302Z,38.86
2023-04-15T08:36:23.410Z,39.01
2023-04-15T08:37:23.379Z,40.44
2023-04-15T08:38:23.372Z,40.18
2023-04-15T08:39:23.442Z,39.88
2023-04-15T08:40:23.498Z,40.39
2023-04-15T08:41:23.556Z,38.66
2023-04-15T08:42:23.556Z,38.47
2023-04-15T08:43:23.617Z,39.12
2023-04-15T08:44:23.608Z,38.27
2023-04-15T08:45:23.651Z,38.47
2023-04-15T08:46:23.684Z,37.00
2023-04-15T08:47:23.661Z,37.04
2023-04-15T08:48:23.650Z,38.75
2023-04-15T08:49:23.661Z,40.68
2023-04-15T08:50:23.728Z,38.16
2023-04-15T08:51:24.988Z,38.43
2023-04-15T08:52:23.817Z,36.95
2023-04-15T08:53:23.887Z,36.94
2023-04-15T08:54:23.899Z,37.37
2023-04-15T08:55:24.732Z,36.58
2023-04-15T08:56:23.997Z,38.05
2023-04-15T08:57:23.960Z,36.47
2023-04-15T08:58:23.974Z,37.45
2023-04-15T08:59:24.005Z,36.65
2023-04-15T09:00:24.073Z,40.20
2023-04-15T09:01:24.095Z,37.26
2023-04-15T09:02:24.187Z,37.03
2023-04-15T09:03:24.190Z,36.87
2023-04-15T09:04:24.165Z,36.91
2023-04-15T09:05:24.201Z,40.07
2023-04-15T09:06:24.236Z,37.18
2023-04-15T09:07:24.230Z,37.72
2023-04-15T09:08:24.315Z,37.03
2023-04-15T09:09:24.258Z,36.49
2023-04-15T09:10:24.331Z,36.89
2023-04-15T09:11:24.313Z,37.10
2023-04-15T09:12:24.293Z,37.09
2023-04-15T09:13:24.365Z,36.94
2023-04-15T09:14:24.429Z,35.20
2023-04-15T09:15:24.492Z,35.15
2023-04-15T09:16:24.597Z,34.46
2023-04-15T09:17:24.515Z,36.34
2023-04-15T09:18:24.511Z,35.19
2023-04-15T09:19:24.578Z,33.10
2023-04-15T09:20:24.720Z,34.12
2023-04-15T09:21:24.582Z,34.38
2023-04-15T09:22:24.587Z,32.92
2023-04-15T09:23:24.679Z,32.53
2023-04-15T09:24:24.717Z,31.97
2023-04-15T09:25:24.742Z,31.81
2023-04-15T09:26:24.804Z,32.26
2023-04-15T09:27:24.823Z,32.02
2023-04-15T09:28:24.868Z,31.60
2023-04-15T09:29:24.970Z,31.85
2023-04-15T09:30:24.953Z,30.89
2023-04-15T09:31:25.060Z,29.93
2023-04-15T09:32:25.054Z,30.69
2023-04-15T09:33:25.046Z,33.11
2023-04-15T09:34:25.112Z,31.54
2023-04-15T09:35:25.183Z,29.46
2023-04-15T09:36:25.231Z,30.98
2023-04-15T09:37:32.477Z,30.66
2023-04-15T09:38:26.672Z,30.83
2023-04-15T09:39:25.200Z,29.93
2023-04-15T09:40:25.692Z,30.03
2023-04-15T09:41:25.196Z,29.15
2023-04-15T09:42:25.166Z,28.63
2023-04-15T09:43:25.205Z,30.23
2023-04-15T09:44:25.131Z,32.64
2023-04-15T09:45:27.152Z,33.58
2023-04-15T09:46:25.136Z,31.70
2023-04-15T09:47:25.137Z,30.95
2023-04-15T09:48:25.360Z,30.97
2023-04-15T09:49:25.198Z,29.03
2023-04-15T09:50:25.114Z,28.60
2023-04-15T09:51:25.068Z,30.85
2023-04-15T09:52:25.075Z,32.87
2023-04-15T09:53:25.125Z,32.55
2023-04-15T09:54:25.074Z,30.51
2023-04-15T09:55:25.109Z,30.76
2023-04-15T09:56:25.056Z,29.84
2023-04-15T09:57:25.093Z,29.92
2023-04-15T09:58:25.090Z,30.74
2023-04-15T09:59:25.055Z,31.49
2023-04-15T10:00:25.031Z,31.50
2023-04-15T10:01:25.126Z,31.20
2023-04-15T10:02:25.142Z,31.42
2023-04-15T10:03:25.123Z,32.11
2023-04-15T10:04:25.148Z,32.39
2023-04-15T10:05:25.026Z,31.70
2023-04-15T10:06:25.031Z,31.89
2023-04-15T10:07:25.053Z,32.12
2023-04-15T10:08:24.976Z,31.95
2023-04-15T10:09:24.989Z,31.25
2023-04-15T10:10:25.055Z,31.05
2023-04-15T10:11:24.974Z,30.94
2023-04-15T10:12:24.942Z,31.10
2023-04-15T10:13:24.961Z,31.39
2023-04-15T10:14:25.034Z,31.73
2023-04-15T10:15:25.049Z,32.13
2023-04-15T10:16:25.051Z,32.50
2023-04-15T10:17:25.125Z,32.67
2023-04-15T10:18:25.109Z,32.98
2023-04-15T10:19:25.125Z,33.12
2023-04-15T10:20:25.752Z,33.40
2023-04-15T10:21:25.118Z,33.66
2023-04-15T10:22:25.132Z,33.92
2023-04-15T10:23:25.151Z,33.71
2023-04-15T10:24:25.226Z,33.14
2023-04-15T10:25:25.178Z,33.09
2023-04-15T10:26:25.150Z,33.14
2023-04-15T10:27:25.178Z,32.99
2023-04-15T10:28:25.206Z,33.24
2023-04-15T10:29:25.164Z,33.12
2023-04-15T10:30:25.688Z,33.43
2023-04-15T10:31:25.303Z,33.98
2023-04-15T10:32:25.305Z,34.30
2023-04-15T10:33:25.286Z,34.09
2023-04-15T10:34:25.348Z,34.25
2023-04-15T10:35:25.370Z,34.44
2023-04-15T10:36:25.386Z,34.56
2023-04-15T10:37:25.417Z,34.54
2023-04-15T10:38:25.434Z,34.81
2023-04-15T10:39:25.494Z,34.91
2023-04-15T10:40:25.681Z,34.78
2023-04-15T10:41:25.544Z,35.11
2023-04-15T10:42:25.553Z,34.72
2023-04-15T10:43:25.622Z,34.65
2023-04-15T10:44:25.644Z,34.74
2023-04-15T10:45:25.660Z,34.86
2023-04-15T10:46:25.881Z,34.62
2023-04-15T10:47:25.719Z,34.51
2023-04-15T10:48:25.713Z,34.18
2023-04-15T10:49:25.734Z,33.92
2023-04-15T10:50:25.753Z,33.70
2023-04-15T10:51:25.769Z,33.51
2023-04-15T10:52:25.759Z,33.49
2023-04-15T10:53:25.767Z,33.57
2023-04-15T10:54:25.782Z,34.02
2023-04-15T10:55:25.764Z,34.06
2023-04-15T10:56:25.764Z,33.51
2023-04-15T10:57:25.790Z,33.30
2023-04-15T10:58:25.803Z,33.42
2023-04-15T10:59:25.817Z,33.56
2023-04-15T11:00:25.923Z,33.49
2023-04-15T11:01:25.980Z,33.53
2023-04-15T11:02:26.252Z,33.37
2023-04-15T11:03:26.013Z,33.35
2023-04-15T11:04:26.043Z,32.80
2023-04-15T11:05:26.046Z,32.76
2023-04-15T11:06:26.065Z,33.37
2023-04-15T11:07:26.070Z,33.38
2023-04-15T11:08:26.696Z,33.23
2023-04-15T11:09:26.209Z,33.10
2023-04-15T11:10:26.251Z,33.24
2023-04-15T11:11:26.204Z,33.10
2023-04-15T11:12:26.222Z,33.00
2023-04-15T11:13:26.248Z,33.08
2023-04-15T11:14:26.295Z,32.99
2023-04-15T11:15:26.829Z,32.94
2023-04-15T11:16:26.374Z,33.22
2023-04-15T11:17:26.466Z,33.56
2023-04-15T11:18:26.446Z,33.21
2023-04-15T11:19:26.510Z,32.92
2023-04-15T11:20:26.564Z,32.72
2023-04-15T11:21:26.641Z,32.79
2023-04-15T11:22:26.651Z,32.51
2023-04-15T11:23:26.670Z,32.25
2023-04-15T11:24:26.790Z,32.34
2023-04-15T11:25:26.812Z,32.05
2023-04-15T11:26:26.798Z,31.95
2023-04-15T11:27:26.917Z,32.64
2023-04-15T11:28:26.861Z,32.79
2023-04-15T11:29:26.996Z,32.56
2023-04-15T11:30:26.965Z,32.65
2023-04-15T11:31:26.984Z,32.78
2023-04-15T11:32:27.053Z,32.40
2023-04-15T11:33:27.037Z,32.55
2023-04-15T11:34:27.048Z,32.17
2023-04-15T11:35:27.115Z,31.46
2023-04-15T11:36:27.138Z,31.54
2023-04-15T11:37:27.081Z,31.44
2023-04-15T11:38:27.161Z,31.20
2023-04-15T11:39:27.179Z,30.69
2023-04-15T11:40:27.250Z,30.94
2023-04-15T11:41:27.329Z,30.91
2023-04-15T11:42:36.203Z,30.97
2023-04-15T11:43:28.306Z,31.13
2023-04-15T11:44:27.353Z,30.50
2023-04-15T11:45:27.428Z,30.88
2023-04-15T11:46:27.357Z,31.26
2023-04-15T11:47:27.378Z,31.87
2023-04-15T11:48:27.294Z,32.16
2023-04-15T11:49:27.271Z,31.97
2023-04-15T11:50:27.329Z,31.73
2023-04-15T11:51:27.260Z,31.49
2023-04-15T11:52:27.268Z,31.83
2023-04-15T11:53:27.264Z,31.52
2023-04-15T11:54:27.306Z,31.74
2023-04-15T11:55:27.286Z,31.99
2023-04-15T11:56:27.239Z,31.74
2023-04-15T11:57:27.266Z,32.35
2023-04-15T11:58:27.231Z,32.18
2023-04-15T11:59:38.922Z,31.95
2023-04-15T12:00:28.290Z,32.08
2023-04-15T12:01:27.205Z,32.27
2023-04-15T12:02:27.348Z,32.70
2023-04-15T12:03:27.608Z,32.75
2023-04-15T12:04:27.299Z,33.23
2023-04-15T12:05:27.199Z,33.67
2023-04-15T12:06:27.169Z,33.67
2023-04-15T12:07:27.236Z,34.13
2023-04-15T12:08:27.162Z,34.51
2023-04-15T12:09:27.258Z,34.50
2023-04-15T12:10:27.152Z,34.60
2023-04-15T12:11:27.133Z,34.20
2023-04-15T12:12:27.192Z,33.95
2023-04-15T12:13:27.217Z,34.10
2023-04-15T12:14:27.203Z,34.64
2023-04-15T12:15:27.256Z,34.65
2023-04-15T12:16:27.306Z,34.47
2023-04-15T12:17:27.383Z,34.37
2023-04-15T12:18:27.396Z,34.20
2023-04-15T12:19:27.373Z,34.34
2023-04-15T12:20:27.389Z,34.22
2023-04-15T12:21:27.377Z,34.56
2023-04-15T12:22:27.425Z,34.35
2023-04-15T12:23:27.469Z,34.17
2023-04-15T12:24:27.467Z,34.22
2023-04-15T12:25:27.757Z,34.52
2023-04-15T12:26:27.546Z,34.54
2023-04-15T12:27:29.643Z,34.21
2023-04-15T12:28:27.568Z,34.03
2023-04-15T12:29:27.641Z,33.73
2023-04-15T12:30:27.716Z,33.64
2023-04-15T12:31:27.672Z,33.42
2023-04-15T12:32:27.790Z,33.56
2023-04-15T12:33:27.794Z,33.68
2023-04-15T12:34:27.788Z,33.99
2023-04-15T12:35:27.847Z,33.69
2023-04-15T12:36:27.907Z,33.71
2023-04-15T12:37:27.946Z,33.45
2023-04-15T12:38:28.017Z,32.78
2023-04-15T12:39:29.973Z,32.53
2023-04-15T12:40:27.983Z,32.15
2023-04-15T12:41:27.956Z,32.02
2023-04-15T12:42:28.020Z,32.39
2023-04-15T12:43:27.957Z,32.47
2023-04-15T12:44:28.057Z,32.87
2023-04-15T12:45:29.891Z,32.71
2023-04-15T12:46:27.979Z,33.10
2023-04-15T12:47:27.978Z,33.31
2023-04-15T12:48:27.964Z,33.56
2023-04-15T12:49:27.985Z,33.73
2023-04-15T12:50:28.084Z,33.67
2023-04-15T12:51:27.945Z,33.88
2023-04-15T12:52:27.965Z,34.11